Time;durP1;ratioP1;P1;durP2;ratioP2;P2;SDS_P1;SDS_P2;PMS_P1;PMS_P2;Temp;Humidity;BMP_temperature;BMP_pressure;BME280_temperature;BME280_humidity;BME280_pressure;Samples;Min_cycle;Max_cycle;Signal;HPM_P1;HPM_P2
2021/05/08 11:11:15;;;;;;;1.48;1.38;;;14.10;77.20;;;;;;5115804;27;20416;-76
2021/05/08 11:13:41;;;;;;;3.05;1.50;;;14.80;60.40;;;;;;5103861;28;20068;-77
2021/05/08 11:16:10;;;;;;;1.38;1.27;;;14.60;65.50;;;;;;5104168;28;20023;-77
2021/05/08 11:18:41;;;;;;;2.03;1.40;;;14.70;61.80;;;;;;5105192;28;20016;-76
2021/05/08 11:21:13;;;;;;;2.58;1.38;;;14.60;62.00;;;;;;5085235;28;20032;-76
2021/05/08 11:23:55;;;;;;;1.85;1.25;;;14.60;63.50;;;;;;5088200;28;20058;-79
2021/05/08 11:26:28;;;;;;;2.10;1.70;;;14.60;65.50;;;;;;5089536;28;20032;-76
2021/05/08 12:16:01;;;;;;;3.10;1.50;;;14.90;67.60;;;;;;5085932;27;20736;-77
2021/05/08 12:18:27;;;;;;;1.65;1.38;;;15.60;54.70;;;;;;5085225;28;20483;-76
2021/05/08 12:20:53;;;;;;;1.92;1.58;;;15.60;55.90;;;;;;5080952;28;20078;-76
2021/05/08 12:23:24;;;;;;;1.15;1.05;;;15.60;53.60;;;;;;5077682;28;20024;-76
2021/05/08 12:26:09;;;;;;;1.77;1.20;;;15.60;57.10;;;;;;5075060;28;20033;-75
2021/05/08 12:28:49;;;;;;;1.60;1.23;;;15.70;55.20;;;;;;5078736;28;20032;-79
2021/05/08 12:31:29;;;;;;;1.25;1.15;;;15.60;53.80;;;;;;5083887;28;20032;-75
2021/05/08 12:34:06;;;;;;;1.35;0.90;;;15.50;54.10;;;;;;5086981;28;20492;-76
2021/05/08 12:36:34;;;;;;;1.40;0.90;;;15.50;57.00;;;;;;5086896;28;20476;-76
2021/05/08 12:39:21;;;;;;;2.45;1.10;;;15.50;54.70;;;;;;5077992;28;20031;-79
2021/05/08 12:41:53;;;;;;;1.58;1.02;;;15.60;55.90;;;;;;5085921;28;20024;-76
2021/05/08 12:44:31;;;;;;;1.35;1.20;;;15.90;57.40;;;;;;5086977;28;20033;-75
2021/05/08 12:47:02;;;;;;;1.70;1.17;;;16.20;57.50;;;;;;5104739;28;20044;-75
2021/05/08 12:49:30;;;;;;;2.97;1.08;;;16.40;58.40;;;;;;5066250;28;20046;-78
2021/05/08 12:51:56;;;;;;;2.03;1.20;;;16.70;59.60;;;;;;5063604;28;20039;-76
2021/05/08 12:54:23;;;;;;;1.70;1.00;;;17.00;55.30;;;;;;5084292;28;20029;-77
2021/05/08 12:56:52;;;;;;;1.48;1.10;;;17.10;54.90;;;;;;5093110;28;20555;-78
2021/05/08 12:59:27;;;;;;;1.45;1.20;;;17.40;56.40;;;;;;5078875;28;20099;-75
2021/05/08 13:01:54;;;;;;;1.90;1.05;;;17.50;52.60;;;;;;5084776;28;20394;-75
2021/05/08 13:04:35;;;;;;;2.35;1.13;;;17.50;53.80;;;;;;5082454;28;20028;-76
2021/05/08 13:07:23;;;;;;;1.52;1.25;;;17.60;51.80;;;;;;5081782;28;20024;-75
2021/05/08 13:09:50;;;;;;;2.42;1.20;;;17.20;49.70;;;;;;5079586;28;20472;-75
2021/05/08 13:12:18;;;;;;;2.92;1.65;;;17.30;54.50;;;;;;5080968;28;20070;-75
2021/05/08 13:14:44;;;;;;;2.45;1.52;;;17.10;53.20;;;;;;5068426;28;20046;-75
2021/05/08 13:17:10;;;;;;;2.63;1.30;;;17.00;49.80;;;;;;5066712;28;20646;-75
2021/05/08 13:19:36;;;;;;;2.03;1.10;;;16.90;52.70;;;;;;5065561;28;20051;-75
2021/05/08 13:22:02;;;;;;;1.05;0.88;;;17.00;52.10;;;;;;5080826;28;20636;-76
2021/05/08 13:24:36;;;;;;;1.70;1.00;;;17.40;54.30;;;;;;5074380;28;20032;-76
2021/05/08 13:27:04;;;;;;;1.35;1.05;;;17.80;50.50;;;;;;5050862;28;20631;-75
2021/05/08 13:29:30;;;;;;;1.75;1.00;;;18.30;54.50;;;;;;5070564;28;20700;-77
2021/05/08 13:31:56;;;;;;;6.43;1.08;;;18.80;53.30;;;;;;5068279;28;20491;-77
2021/05/08 13:34:22;;;;;;;0.93;0.90;;;19.20;53.10;;;;;;5059925;28;20063;-77
2021/05/08 13:36:48;;;;;;;1.52;1.00;;;19.40;46.30;;;;;;5069381;28;20059;-77
2021/05/08 13:39:14;;;;;;;2.90;1.10;;;19.60;46.20;;;;;;5075436;28;20050;-76
2021/05/08 13:41:40;;;;;;;1.20;1.10;;;19.40;43.00;;;;;;5070370;28;20025;-78
2021/05/08 13:44:06;;;;;;;4.22;1.00;;;19.20;47.60;;;;;;5054124;28;20035;-77
2021/05/08 13:46:37;;;;;;;1.90;1.10;;;19.20;47.90;;;;;;5076766;28;20798;-78
2021/05/08 13:49:03;;;;;;;1.60;0.80;;;19.00;45.70;;;;;;5069580;28;20032;-77
2021/05/08 13:51:28;;;;;;;1.55;1.30;;;18.90;49.00;;;;;;5072643;28;20480;-76
2021/05/08 13:53:54;;;;;;;1.45;0.70;;;18.80;48.40;;;;;;5076046;28;20033;-76
2021/05/08 13:56:20;;;;;;;1.45;0.77;;;18.70;48.00;;;;;;5055809;28;20595;-75
2021/05/08 13:58:46;;;;;;;0.80;0.80;;;18.50;49.50;;;;;;5077472;28;20020;-76
2021/05/08 14:01:11;;;;;;;0.60;0.60;;;18.30;52.60;;;;;;5069651;28;20026;-76
2021/05/08 14:03:37;;;;;;;3.65;0.77;;;18.10;51.50;;;;;;5066980;28;20044;-76
2021/05/08 14:06:04;;;;;;;0.90;0.77;;;17.90;48.70;;;;;;5053437;28;20032;-76
2021/05/08 14:08:29;;;;;;;1.73;0.80;;;17.90;52.10;;;;;;5050668;28;20041;-76
2021/05/08 14:10:55;;;;;;;0.85;0.82;;;17.80;50.80;;;;;;5051592;28;20031;-76
2021/05/08 14:13:22;;;;;;;1.00;0.88;;;17.70;55.30;;;;;;5044219;28;20047;-76
2021/05/08 14:15:48;;;;;;;3.65;0.90;;;17.70;47.70;;;;;;5043183;28;20036;-76
2021/05/08 14:18:14;;;;;;;1.38;0.80;;;17.80;50.40;;;;;;5060662;28;20024;-76
2021/05/08 14:20:40;;;;;;;1.30;0.60;;;17.80;51.90;;;;;;5055767;28;20575;-76
2021/05/08 14:23:06;;;;;;;5.20;0.88;;;17.80;52.80;;;;;;5054669;28;20032;-76
2021/05/08 14:25:31;;;;;;;0.98;0.88;;;17.60;49.20;;;;;;5067339;28;20082;-78
2021/05/08 14:27:57;;;;;;;0.80;0.75;;;17.50;50.70;;;;;;5060544;28;20558;-76
2021/05/08 14:30:23;;;;;;;1.00;0.68;;;17.30;48.30;;;;;;5060768;28;20025;-75
2021/05/08 14:32:48;;;;;;;1.02;0.90;;;17.20;51.00;;;;;;5053931;28;20061;-78
2021/05/08 14:35:14;;;;;;;1.60;0.70;;;17.20;53.50;;;;;;5047316;28;20524;-78
2021/05/08 14:37:40;;;;;;;0.70;0.70;;;17.20;53.60;;;;;;5062496;28;20715;-76
2021/05/08 14:40:07;;;;;;;2.25;0.93;;;17.10;51.80;;;;;;5057506;28;20032;-77
2021/05/08 14:42:34;;;;;;;0.80;0.70;;;17.10;52.60;;;;;;5056707;28;20039;-76
2021/05/08 14:45:03;;;;;;;1.92;0.73;;;17.10;52.20;;;;;;5068293;28;20103;-78
2021/05/08 14:47:30;;;;;;;1.70;0.90;;;17.00;53.40;;;;;;5058963;28;20051;-79
2021/05/08 14:49:56;;;;;;;0.45;0.45;;;17.00;56.00;;;;;;5061644;28;20064;-78
2021/05/08 14:52:24;;;;;;;0.88;0.50;;;17.00;57.90;;;;;;5063140;28;20921;-78
2021/05/08 14:54:50;;;;;;;1.33;0.70;;;17.00;55.40;;;;;;5053719;28;20060;-77
2021/05/08 14:57:16;;;;;;;0.57;0.57;;;17.00;54.10;;;;;;5060958;28;20070;-76
2021/05/08 14:59:43;;;;;;;0.60;0.60;;;17.00;50.50;;;;;;5061189;28;20024;-77
2021/05/08 15:02:08;;;;;;;0.85;0.60;;;16.90;54.40;;;;;;5049343;28;20044;-79
2021/05/08 15:04:34;;;;;;;0.63;0.45;;;16.80;50.90;;;;;;5060971;28;20075;-77
2021/05/08 15:07:00;;;;;;;0.85;0.70;;;16.70;53.50;;;;;;5046805;28;20889;-78
2021/05/08 15:09:28;;;;;;;1.55;0.68;;;16.70;54.80;;;;;;5060904;28;20116;-77
2021/05/08 15:11:54;;;;;;;3.13;0.77;;;16.70;56.80;;;;;;5061575;28;20040;-77
2021/05/08 15:14:19;;;;;;;0.70;0.60;;;16.70;54.60;;;;;;5056617;28;20028;-77
2021/05/08 15:16:45;;;;;;;1.65;1.00;;;16.60;55.80;;;;;;5066063;28;20055;-77
2021/05/08 15:19:11;;;;;;;1.63;0.90;;;16.50;54.90;;;;;;5064651;28;20036;-77
2021/05/08 15:21:37;;;;;;;1.20;0.70;;;16.40;56.30;;;;;;5055548;28;20059;-78
2021/05/08 15:24:03;;;;;;;2.92;0.80;;;16.30;56.30;;;;;;5057480;28;20032;-76
2021/05/08 15:26:29;;;;;;;1.02;0.80;;;16.20;58.70;;;;;;5055025;28;20120;-76
2021/05/08 15:28:55;;;;;;;0.77;0.60;;;16.10;55.90;;;;;;5062201;28;20119;-76
2021/05/08 15:31:21;;;;;;;0.98;0.80;;;16.00;56.10;;;;;;5057401;28;20041;-76
2021/05/08 15:33:46;;;;;;;1.17;0.70;;;16.00;54.50;;;;;;5057009;28;20032;-75
2021/05/08 15:36:12;;;;;;;0.60;0.60;;;16.00;56.50;;;;;;5052605;28;20119;-76
2021/05/08 15:38:38;;;;;;;2.45;0.60;;;16.10;56.80;;;;;;5039759;28;20077;-76
2021/05/08 15:41:03;;;;;;;0.60;0.60;;;16.20;54.20;;;;;;5052400;28;20037;-76
2021/05/08 15:43:29;;;;;;;0.77;0.77;;;16.20;55.90;;;;;;5062849;28;20040;-76
2021/05/08 15:45:55;;;;;;;2.30;0.90;;;16.30;57.10;;;;;;5058873;28;20115;-76
2021/05/08 15:48:21;;;;;;;2.63;1.33;;;16.40;57.80;;;;;;5059634;28;20016;-77
2021/05/08 15:50:51;;;;;;;0.77;0.70;;;16.60;57.10;;;;;;5055767;28;20032;-77
2021/05/08 15:53:17;;;;;;;0.73;0.70;;;16.60;55.60;;;;;;5061115;28;20387;-78
2021/05/08 15:55:49;;;;;;;0.70;0.70;;;16.60;56.20;;;;;;5068875;28;20032;-76
2021/05/08 15:58:15;;;;;;;0.90;0.70;;;16.60;52.30;;;;;;5070869;28;20035;-76
2021/05/08 16:00:40;;;;;;;1.85;0.77;;;16.40;54.90;;;;;;5052633;28;20134;-76
2021/05/08 16:03:07;;;;;;;2.78;0.93;;;16.20;56.30;;;;;;5073359;28;20119;-77
2021/05/08 16:05:33;;;;;;;0.98;0.80;;;16.20;55.70;;;;;;5065882;28;20033;-76
2021/05/08 16:07:59;;;;;;;2.45;0.80;;;16.10;56.70;;;;;;5068054;28;20020;-75
2021/05/08 16:10:27;;;;;;;0.82;0.75;;;16.20;55.40;;;;;;5048025;28;20037;-76
2021/05/08 16:12:53;;;;;;;0.93;0.88;;;16.10;55.70;;;;;;5070174;28;20446;-76
2021/05/08 16:15:19;;;;;;;2.70;1.08;;;16.10;56.10;;;;;;5073364;28;20028;-75
2021/05/08 16:17:45;;;;;;;1.40;0.95;;;16.00;55.60;;;;;;5066923;28;20519;-76
2021/05/08 16:20:12;;;;;;;1.50;0.75;;;16.00;55.60;;;;;;5064116;28;20048;-76
2021/05/08 16:22:38;;;;;;;1.00;0.90;;;16.00;56.80;;;;;;5071383;28;20638;-76
2021/05/08 16:25:05;;;;;;;1.30;0.70;;;16.00;57.60;;;;;;5066489;28;20041;-76
2021/05/08 16:27:31;;;;;;;2.15;0.90;;;16.00;56.20;;;;;;5073765;28;20051;-76
2021/05/08 16:29:57;;;;;;;0.88;0.85;;;15.90;57.70;;;;;;5073624;28;20364;-76
2021/05/08 16:32:24;;;;;;;1.02;0.80;;;15.90;58.20;;;;;;5071733;28;20027;-76
2021/05/08 16:34:50;;;;;;;2.38;0.80;;;15.90;58.50;;;;;;5069111;28;20035;-75
2021/05/08 16:37:16;;;;;;;0.82;0.73;;;15.80;58.80;;;;;;5063035;28;20813;-76
2021/05/08 16:39:47;;;;;;;1.00;0.90;;;15.90;58.00;;;;;;5055575;28;20094;-76
2021/05/08 16:42:13;;;;;;;2.25;1.02;;;15.90;56.30;;;;;;5062782;28;20016;-76
2021/05/08 16:44:42;;;;;;;2.80;0.90;;;15.90;56.50;;;;;;5064128;28;20025;-76
2021/05/08 16:47:32;;;;;;;2.50;1.02;;;15.90;57.00;;;;;;5034603;28;20472;-77
2021/05/08 16:49:58;;;;;;;0.70;0.70;;;15.80;57.10;;;;;;5064125;28;20045;-76
2021/05/08 16:52:27;;;;;;;1.52;1.10;;;15.70;58.10;;;;;;5066758;28;20882;-77
2021/05/08 16:54:53;;;;;;;0.75;0.70;;;15.50;60.30;;;;;;5060606;28;20040;-75
2021/05/08 16:57:18;;;;;;;1.15;0.90;;;15.30;58.80;;;;;;5031149;28;20025;-77
2021/05/08 16:59:47;;;;;;;1.83;1.05;;;15.20;60.70;;;;;;5034235;28;20035;-76
2021/05/08 17:02:12;;;;;;;2.58;0.77;;;15.00;60.70;;;;;;5071600;28;20024;-77
2021/05/08 17:04:38;;;;;;;0.73;0.73;;;14.90;61.80;;;;;;5062235;28;20032;-76
2021/05/08 17:07:04;;;;;;;1.55;0.95;;;14.90;62.10;;;;;;5050664;28;20044;-76
2021/05/08 17:09:29;;;;;;;3.60;0.82;;;14.80;64.10;;;;;;5037627;28;20032;-77
2021/05/08 17:11:55;;;;;;;0.82;0.63;;;14.90;61.80;;;;;;5060108;28;20037;-76
2021/05/08 17:14:21;;;;;;;1.00;0.80;;;14.90;62.30;;;;;;5069254;28;20125;-76
2021/05/08 17:16:47;;;;;;;1.55;0.82;;;15.00;64.40;;;;;;5055342;28;20032;-77
2021/05/08 17:19:12;;;;;;;1.83;1.00;;;15.00;65.10;;;;;;5074624;28;20031;-76
2021/05/08 17:21:38;;;;;;;1.05;0.70;;;15.00;63.20;;;;;;5077496;28;20032;-75
2021/05/08 17:24:04;;;;;;;1.75;0.70;;;14.90;62.30;;;;;;5069955;28;20040;-77
2021/05/08 17:26:30;;;;;;;1.35;0.85;;;14.80;63.60;;;;;;5070867;28;20644;-76
2021/05/08 17:28:55;;;;;;;1.20;0.88;;;14.80;63.40;;;;;;5070967;28;20024;-77
2021/05/08 17:31:21;;;;;;;0.50;0.50;;;14.70;64.50;;;;;;5061220;28;20183;-77
2021/05/08 17:33:47;;;;;;;0.93;0.90;;;14.60;64.70;;;;;;5061499;28;20365;-77
2021/05/08 17:36:12;;;;;;;1.10;0.95;;;14.50;66.30;;;;;;5068148;28;20055;-75
2021/05/08 17:38:38;;;;;;;1.13;0.80;;;14.40;65.90;;;;;;5051330;28;20020;-74
2021/05/08 17:41:04;;;;;;;3.03;0.93;;;14.30;67.10;;;;;;5055927;28;20075;-76
2021/05/08 17:43:29;;;;;;;2.15;0.73;;;14.40;66.80;;;;;;5049782;28;20448;-75
2021/05/08 17:45:55;;;;;;;1.40;0.80;;;14.40;65.60;;;;;;5052837;28;20051;-76
2021/05/08 17:48:21;;;;;;;1.58;0.90;;;14.50;67.00;;;;;;5053242;28;20621;-75
2021/05/08 17:50:47;;;;;;;2.03;0.90;;;14.40;66.90;;;;;;5038606;28;20102;-75
2021/05/08 17:53:12;;;;;;;0.90;0.85;;;14.40;67.90;;;;;;5054064;28;20127;-77
2021/05/08 17:55:38;;;;;;;1.17;0.90;;;14.30;68.10;;;;;;5052372;28;20492;-75
2021/05/08 17:58:03;;;;;;;1.40;1.00;;;14.20;68.70;;;;;;5052467;28;20041;-75
2021/05/08 18:00:29;;;;;;;1.30;1.05;;;14.10;71.00;;;;;;5048732;28;20034;-76
2021/05/08 18:02:55;;;;;;;1.98;1.02;;;14.00;70.80;;;;;;5049283;28;20128;-74
2021/05/08 18:05:21;;;;;;;1.50;1.23;;;14.00;71.00;;;;;;5052395;28;20112;-75
2021/05/08 18:07:46;;;;;;;1.08;1.00;;;14.00;71.00;;;;;;5039908;28;20194;-75
2021/05/08 18:10:12;;;;;;;2.20;1.50;;;13.90;71.40;;;;;;5043376;28;20032;-74
2021/05/08 18:12:38;;;;;;;1.25;1.15;;;13.80;69.20;;;;;;5051996;28;20111;-76
2021/05/08 18:15:05;;;;;;;1.75;1.00;;;13.70;69.00;;;;;;5053598;28;20075;-75
2021/05/08 18:17:30;;;;;;;1.90;1.10;;;13.70;71.80;;;;;;5052528;28;20028;-77
2021/05/08 18:19:56;;;;;;;1.05;0.90;;;13.60;74.40;;;;;;5055295;28;20411;-76
2021/05/08 18:22:22;;;;;;;1.20;1.10;;;13.50;75.10;;;;;;5055381;28;20028;-75
2021/05/08 18:24:47;;;;;;;1.55;1.25;;;13.40;73.60;;;;;;5051686;28;20032;-75
2021/05/08 18:27:13;;;;;;;1.25;1.15;;;13.40;73.70;;;;;;5036620;28;20283;-75
2021/05/08 18:29:39;;;;;;;1.25;1.15;;;13.30;75.20;;;;;;5047661;28;20033;-75
2021/05/08 18:32:05;;;;;;;1.42;1.00;;;13.20;74.20;;;;;;5050331;28;20072;-75
2021/05/08 18:34:31;;;;;;;2.08;1.17;;;13.10;74.80;;;;;;5048376;28;20040;-74
2021/05/08 18:36:56;;;;;;;1.90;1.10;;;13.00;73.60;;;;;;5051942;28;20534;-74
2021/05/08 18:39:22;;;;;;;0.85;0.85;;;12.90;73.20;;;;;;5044663;28;20035;-75
2021/05/08 18:41:48;;;;;;;4.32;1.20;;;12.80;73.50;;;;;;5048047;28;20029;-75
2021/05/08 18:44:13;;;;;;;3.22;1.20;;;12.80;74.40;;;;;;5038177;28;20309;-74
2021/05/08 18:46:39;;;;;;;1.80;1.15;;;12.70;74.60;;;;;;5052794;28;20112;-73
2021/05/08 18:49:05;;;;;;;1.65;1.23;;;12.70;76.10;;;;;;5055951;28;20060;-76
2021/05/08 18:51:31;;;;;;;2.97;1.13;;;12.60;75.20;;;;;;5055551;28;20044;-75
2021/05/08 18:53:56;;;;;;;1.60;1.25;;;12.60;74.00;;;;;;5048104;28;20033;-75
2021/05/08 18:56:22;;;;;;;1.67;1.20;;;12.60;74.00;;;;;;5050770;28;20047;-74
2021/05/08 18:58:49;;;;;;;3.50;1.35;;;12.60;78.00;;;;;;5057217;28;20052;-76
2021/05/08 19:01:15;;;;;;;1.67;1.02;;;12.50;78.90;;;;;;5053638;28;20397;-75
2021/05/08 19:03:41;;;;;;;2.13;1.00;;;12.40;79.20;;;;;;5056351;28;20120;-74
2021/05/08 19:06:07;;;;;;;2.25;1.35;;;12.30;79.90;;;;;;5055336;28;20063;-75
2021/05/08 19:08:33;;;;;;;1.60;1.20;;;12.20;79.90;;;;;;5056038;28;20519;-75
2021/05/08 19:10:59;;;;;;;1.67;1.20;;;12.10;81.40;;;;;;5044960;28;20094;-75
2021/05/08 19:13:24;;;;;;;1.60;1.33;;;12.00;81.70;;;;;;5052572;28;20028;-76
2021/05/08 19:15:50;;;;;;;1.80;1.17;;;11.90;81.60;;;;;;5049016;28;20452;-74
2021/05/08 19:18:16;;;;;;;2.03;1.33;;;11.80;79.40;;;;;;5052271;28;20017;-74
2021/05/08 19:20:42;;;;;;;2.13;1.40;;;11.80;80.90;;;;;;5049427;28;20735;-76
2021/05/08 19:23:08;;;;;;;2.65;1.65;;;11.70;82.50;;;;;;5054138;28;20496;-76
2021/05/08 19:25:34;;;;;;;1.70;1.50;;;11.70;81.90;;;;;;5066345;28;20028;-75
2021/05/08 19:28:00;;;;;;;1.95;1.42;;;11.60;83.40;;;;;;5068860;28;20566;-75
2021/05/08 19:30:26;;;;;;;1.45;1.30;;;11.50;84.70;;;;;;5059615;28;20032;-75
2021/05/08 19:32:52;;;;;;;1.80;1.52;;;11.40;86.30;;;;;;5051046;28;20032;-76
2021/05/08 19:35:17;;;;;;;2.13;1.63;;;11.30;87.10;;;;;;5052201;28;20070;-74
2021/05/08 19:37:43;;;;;;;1.40;1.30;;;11.20;87.40;;;;;;5052210;28;20515;-75
2021/05/08 19:40:10;;;;;;;2.30;1.40;;;11.10;88.60;;;;;;5048688;28;20024;-74
2021/05/08 19:42:36;;;;;;;2.47;1.70;;;11.00;90.40;;;;;;5053058;28;20029;-75
2021/05/08 19:45:04;;;;;;;3.55;1.58;;;10.90;90.20;;;;;;5051872;28;20566;-74
2021/05/08 19:47:30;;;;;;;1.85;1.52;;;10.80;90.40;;;;;;5050105;28;20041;-74
2021/05/08 19:49:58;;;;;;;3.30;1.55;;;10.80;90.70;;;;;;5039663;28;20071;-75
2021/05/08 19:52:25;;;;;;;2.75;1.88;;;10.70;90.90;;;;;;5051890;28;20040;-74
2021/05/08 19:54:51;;;;;;;2.10;1.63;;;10.60;91.40;;;;;;5050218;28;20032;-75
2021/05/08 19:57:17;;;;;;;1.35;1.25;;;10.50;91.30;;;;;;5058071;28;20111;-76
2021/05/08 19:59:43;;;;;;;4.20;1.55;;;10.40;91.70;;;;;;5063049;28;20460;-75
2021/05/08 20:02:09;;;;;;;2.30;1.48;;;10.40;91.90;;;;;;5062396;28;20023;-75
2021/05/08 20:04:39;;;;;;;3.08;1.50;;;10.30;91.80;;;;;;5061588;28;20116;-76
2021/05/08 20:07:06;;;;;;;1.50;1.40;;;10.30;91.80;;;;;;5068777;28;20037;-76
2021/05/08 20:09:33;;;;;;;1.40;1.30;;;10.30;92.00;;;;;;5065323;28;20032;-75
2021/05/08 20:11:59;;;;;;;2.40;1.52;;;10.40;92.70;;;;;;5059187;28;20025;-76
2021/05/08 20:14:25;;;;;;;1.50;1.40;;;10.30;93.10;;;;;;5058123;28;20048;-75
2021/05/08 20:16:50;;;;;;;1.58;1.48;;;10.20;93.10;;;;;;5057937;28;20119;-76
2021/05/08 20:19:16;;;;;;;1.80;1.40;;;10.20;93.60;;;;;;5035639;28;20029;-76
2021/05/08 20:21:42;;;;;;;1.42;1.23;;;10.10;94.00;;;;;;5057682;28;20040;-76
2021/05/08 20:24:08;;;;;;;1.40;1.30;;;10.00;94.10;;;;;;5065217;28;20560;-76
2021/05/08 20:26:34;;;;;;;1.52;1.00;;;10.00;94.70;;;;;;5073115;28;20116;-75
2021/05/08 20:28:59;;;;;;;1.60;1.45;;;10.00;94.40;;;;;;5073734;28;20032;-75
2021/05/08 20:31:25;;;;;;;1.35;1.20;;;10.10;94.10;;;;;;5057058;28;20508;-75
2021/05/08 20:33:51;;;;;;;1.55;1.42;;;10.10;94.20;;;;;;5032028;28;20504;-76
2021/05/08 20:36:16;;;;;;;1.73;1.38;;;10.10;94.90;;;;;;5068880;28;20027;-75
2021/05/08 20:38:42;;;;;;;2.60;1.50;;;10.10;94.80;;;;;;5069821;28;20404;-76
2021/05/08 20:41:08;;;;;;;2.53;1.38;;;10.00;95.30;;;;;;5067547;28;20024;-76
2021/05/08 20:43:33;;;;;;;1.75;1.50;;;10.00;95.30;;;;;;5065883;28;20035;-75
2021/05/08 20:45:59;;;;;;;1.60;1.33;;;9.90;95.30;;;;;;5065122;28;20568;-76
2021/05/08 20:48:24;;;;;;;2.58;1.60;;;9.90;95.70;;;;;;5065709;28;20024;-76
2021/05/08 20:50:50;;;;;;;5.55;1.70;;;9.90;96.00;;;;;;5056759;28;20504;-75
2021/05/08 20:53:16;;;;;;;1.60;1.50;;;9.90;95.80;;;;;;5065814;28;20013;-75
2021/05/08 20:55:42;;;;;;;2.05;1.45;;;9.80;95.90;;;;;;5045845;28;20093;-75
2021/05/08 20:58:07;;;;;;;3.08;1.60;;;9.80;96.20;;;;;;5067670;28;20035;-75
2021/05/08 21:00:33;;;;;;;1.75;1.42;;;9.90;95.90;;;;;;5064958;28;20491;-75
2021/05/08 21:02:59;;;;;;;2.53;1.83;;;10.00;94.00;;;;;;5063118;28;20029;-75
2021/05/08 21:05:24;;;;;;;1.75;1.35;;;10.10;95.40;;;;;;5065368;28;20047;-75
2021/05/08 21:07:50;;;;;;;3.38;1.65;;;10.10;94.80;;;;;;5062922;28;20107;-75
2021/05/08 21:10:16;;;;;;;2.72;1.77;;;10.20;94.20;;;;;;5052362;28;20412;-76
2021/05/08 21:12:42;;;;;;;3.15;1.80;;;10.30;93.80;;;;;;5062905;28;20043;-75
2021/05/08 21:15:08;;;;;;;2.30;1.55;;;10.30;93.90;;;;;;5066880;28;20328;-75
2021/05/08 21:17:34;;;;;;;2.38;1.75;;;10.40;93.50;;;;;;5067437;28;20369;-75
2021/05/08 21:19:59;;;;;;;3.22;1.75;;;10.40;93.70;;;;;;5067537;28;20040;-76
2021/05/08 21:22:25;;;;;;;2.42;1.85;;;10.40;93.80;;;;;;5041244;28;20043;-75
2021/05/08 21:24:51;;;;;;;2.17;1.70;;;10.40;93.70;;;;;;5062380;28;20048;-75
2021/05/08 21:27:17;;;;;;;3.25;2.00;;;10.40;94.00;;;;;;5067311;28;20115;-75
2021/05/08 21:29:42;;;;;;;2.63;1.80;;;10.30;94.10;;;;;;5062562;28;20506;-76
2021/05/08 21:32:09;;;;;;;3.10;1.90;;;10.30;94.20;;;;;;5065082;28;20116;-76
2021/05/08 21:34:34;;;;;;;2.13;1.83;;;10.30;93.60;;;;;;5065329;28;20111;-76
2021/05/08 21:37:00;;;;;;;2.42;1.70;;;10.30;94.00;;;;;;5059464;28;20687;-75
2021/05/08 21:39:26;;;;;;;4.70;1.75;;;10.20;94.60;;;;;;5048209;28;20036;-76
2021/05/08 21:41:51;;;;;;;2.95;2.20;;;10.20;94.20;;;;;;5062481;28;20029;-75
2021/05/08 21:44:17;;;;;;;3.10;1.80;;;10.20;94.60;;;;;;5052482;28;20171;-75
2021/05/08 21:46:43;;;;;;;2.20;1.80;;;10.10;94.50;;;;;;5061784;28;20074;-75
2021/05/08 21:49:09;;;;;;;2.80;1.80;;;10.10;94.30;;;;;;5051856;28;20515;-75
2021/05/08 21:51:34;;;;;;;3.80;2.08;;;10.20;94.00;;;;;;5066715;28;20037;-75
2021/05/08 21:54:00;;;;;;;3.92;2.00;;;10.10;94.00;;;;;;5061292;28;20483;-76
2021/05/08 21:56:26;;;;;;;2.22;1.90;;;10.20;93.80;;;;;;5046304;28;20033;-75
2021/05/08 21:58:52;;;;;;;3.85;1.90;;;10.10;94.00;;;;;;5063066;28;20082;-76
2021/05/08 22:01:17;;;;;;;2.42;2.00;;;10.10;93.80;;;;;;5060045;28;20029;-75
2021/05/08 22:03:43;;;;;;;3.17;2.03;;;10.20;93.90;;;;;;5055840;28;20033;-75
2021/05/08 22:06:09;;;;;;;3.38;2.25;;;10.20;94.20;;;;;;5069569;28;20052;-75
2021/05/08 22:08:34;;;;;;;2.65;2.10;;;10.20;93.80;;;;;;5051786;28;20032;-76
2021/05/08 22:11:00;;;;;;;3.55;2.30;;;10.20;94.30;;;;;;5069892;28;20469;-76
2021/05/08 22:13:26;;;;;;;2.47;2.20;;;10.10;94.80;;;;;;5068178;28;20078;-75
2021/05/08 22:15:51;;;;;;;2.55;2.13;;;10.10;94.90;;;;;;5063221;28;20027;-75
2021/05/08 22:18:19;;;;;;;2.28;1.90;;;10.00;95.30;;;;;;5060038;28;20087;-75
2021/05/08 22:20:45;;;;;;;2.42;2.20;;;10.00;95.70;;;;;;5064531;28;20089;-76
2021/05/08 22:23:12;;;;;;;2.70;1.98;;;10.00;95.70;;;;;;5062504;28;20155;-76
2021/05/08 22:25:37;;;;;;;4.85;2.10;;;9.80;95.10;;;;;;5061923;28;20049;-76
2021/05/08 22:28:05;;;;;;;2.03;1.77;;;9.70;95.30;;;;;;5058743;28;20033;-76
2021/05/08 22:30:31;;;;;;;2.38;1.50;;;9.70;95.80;;;;;;5065426;28;20483;-76
2021/05/08 22:32:57;;;;;;;2.58;2.05;;;9.60;95.70;;;;;;5050853;28;20029;-76
2021/05/08 22:35:22;;;;;;;3.15;2.00;;;9.50;95.80;;;;;;5061581;28;20033;-76
2021/05/08 22:37:49;;;;;;;2.50;2.00;;;9.50;97.80;;;;;;5062723;28;20020;-75
2021/05/08 22:40:16;;;;;;;2.67;1.90;;;9.40;97.90;;;;;;5052429;28;20032;-76
2021/05/08 22:42:42;;;;;;;3.00;2.22;;;9.30;98.20;;;;;;5065996;28;20025;-75
2021/05/08 22:45:08;;;;;;;4.45;2.33;;;9.20;98.90;;;;;;5049287;28;20467;-75
2021/05/08 22:47:35;;;;;;;3.13;2.00;;;9.10;99.30;;;;;;5045239;28;20045;-75
2021/05/08 22:50:13;;;;;;;3.05;2.47;;;9.00;99.90;;;;;;5060273;28;20033;-75
2021/05/08 22:52:40;;;;;;;2.78;1.90;;;8.90;99.90;;;;;;5064303;28;20036;-76
2021/05/08 22:55:06;;;;;;;3.25;2.03;;;8.90;99.90;;;;;;5063488;28;20399;-76
2021/05/08 22:57:33;;;;;;;3.45;2.42;;;8.80;99.90;;;;;;5064919;28;20581;-75
2021/05/08 23:00:00;;;;;;;2.50;1.80;;;8.80;99.90;;;;;;5071208;28;20025;-76
2021/05/08 23:02:26;;;;;;;4.60;1.73;;;8.70;99.90;;;;;;5073274;28;20047;-75
2021/05/08 23:04:52;;;;;;;2.00;1.70;;;8.70;99.90;;;;;;5070384;28;20115;-76
2021/05/08 23:07:17;;;;;;;2.58;1.90;;;8.70;99.90;;;;;;5064105;28;20116;-76
2021/05/08 23:09:43;;;;;;;3.55;2.00;;;8.70;99.90;;;;;;5070950;28;20127;-76
2021/05/08 23:12:09;;;;;;;2.65;2.15;;;8.70;99.90;;;;;;5074772;28;20056;-75
2021/05/08 23:14:35;;;;;;;2.70;1.88;;;8.60;99.90;;;;;;5072086;28;20082;-76
2021/05/08 23:17:00;;;;;;;1.85;1.60;;;8.60;99.90;;;;;;5048445;28;20058;-75
2021/05/08 23:19:26;;;;;;;1.65;1.55;;;8.60;99.90;;;;;;5078586;28;20051;-76
2021/05/08 23:21:52;;;;;;;1.60;1.50;;;8.60;99.90;;;;;;5069836;28;20484;-76
2021/05/08 23:24:18;;;;;;;1.75;1.40;;;8.60;99.90;;;;;;5068193;28;20036;-76
2021/05/08 23:26:43;;;;;;;2.75;1.60;;;8.60;99.90;;;;;;5073737;28;20035;-76
2021/05/08 23:29:09;;;;;;;2.70;1.83;;;8.60;99.90;;;;;;5077199;28;20032;-76
2021/05/08 23:31:36;;;;;;;1.85;1.67;;;8.60;99.90;;;;;;5065777;28;20025;-76
2021/05/08 23:34:03;;;;;;;3.15;1.83;;;8.60;99.90;;;;;;5069053;28;20086;-76
2021/05/08 23:36:30;;;;;;;4.10;1.77;;;8.60;99.90;;;;;;5081157;28;20036;-76
2021/05/08 23:38:56;;;;;;;2.60;1.75;;;8.60;99.90;;;;;;5083453;28;20028;-76
2021/05/08 23:41:22;;;;;;;3.10;1.92;;;8.50;99.90;;;;;;5080987;28;20028;-76
2021/05/08 23:43:47;;;;;;;2.75;1.98;;;8.50;99.90;;;;;;5072593;28;20021;-76
2021/05/08 23:46:13;;;;;;;2.95;1.95;;;8.50;99.90;;;;;;5080034;28;20497;-76
2021/05/08 23:48:38;;;;;;;3.20;2.00;;;8.40;99.90;;;;;;5085118;28;20499;-76
2021/05/08 23:51:04;;;;;;;3.85;1.95;;;8.30;99.90;;;;;;5069451;28;20035;-76
2021/05/08 23:53:30;;;;;;;2.53;2.05;;;8.30;99.90;;;;;;5070364;28;20021;-76
2021/05/08 23:55:56;;;;;;;2.30;1.88;;;8.30;99.90;;;;;;5072056;28;20028;-76
2021/05/08 23:58:25;;;;;;;2.72;1.98;;;8.20;99.90;;;;;;5073053;28;20040;-76
